sensor_id;sensor_type;location;lat;lon;timestamp;P1;durP1;ratioP1;P2;durP2;ratioP2
57567;SDS011;43403;51.948;5.922;2022-11-21T00:00:52;27.63;;;17.58;;
57567;SDS011;43403;51.948;5.922;2022-11-21T00:03:19;29.60;;;17.90;;
57567;SDS011;43403;51.948;5.922;2022-11-21T00:05:46;32.80;;;18.38;;
57567;SDS011;43403;51.948;5.922;2022-11-21T00:08:14;27.80;;;17.60;;
57567;SDS011;43403;51.948;5.922;2022-11-21T00:13:12;31.83;;;17.25;;
57567;SDS011;43403;51.948;5.922;2022-11-21T00:15:41;29.10;;;17.75;;
57567;SDS011;43403;51.948;5.922;2022-11-21T00:18:07;26.80;;;16.48;;
57567;SDS011;43403;51.948;5.922;2022-11-21T00:23:03;26.70;;;15.25;;
57567;SDS011;43403;51.948;5.922;2022-11-21T00:25:30;28.83;;;16.52;;
57567;SDS011;43403;51.948;5.922;2022-11-21T00:27:56;25.65;;;16.02;;
57567;SDS011;43403;51.948;5.922;2022-11-21T00:30:23;25.85;;;15.85;;
57567;SDS011;43403;51.948;5.922;2022-11-21T00:32:49;24.58;;;15.18;;
57567;SDS011;43403;51.948;5.922;2022-11-21T00:35:16;27.52;;;16.30;;
57567;SDS011;43403;51.948;5.922;2022-11-21T00:37:42;26.17;;;16.05;;
57567;SDS011;43403;51.948;5.922;2022-11-21T00:40:09;24.67;;;16.02;;
57567;SDS011;43403;51.948;5.922;2022-11-21T00:42:36;29.30;;;16.70;;
57567;SDS011;43403;51.948;5.922;2022-11-21T00:45:02;26.70;;;15.43;;
57567;SDS011;43403;51.948;5.922;2022-11-21T00:47:29;27.65;;;16.13;;
57567;SDS011;43403;51.948;5.922;2022-11-21T00:49:55;25.20;;;16.27;;
57567;SDS011;43403;51.948;5.922;2022-11-21T00:52:21;25.67;;;15.50;;
57567;SDS011;43403;51.948;5.922;2022-11-21T00:54:48;26.50;;;15.85;;
57567;SDS011;43403;51.948;5.922;2022-11-21T00:57:14;24.33;;;15.43;;
57567;SDS011;43403;51.948;5.922;2022-11-21T00:59:40;24.23;;;15.18;;
57567;SDS011;43403;51.948;5.922;2022-11-21T01:02:07;24.60;;;15.40;;
57567;SDS011;43403;51.948;5.922;2022-11-21T01:04:33;29.48;;;16.95;;
57567;SDS011;43403;51.948;5.922;2022-11-21T01:07:00;26.08;;;15.95;;
57567;SDS011;43403;51.948;5.922;2022-11-21T01:09:27;28.83;;;16.25;;
57567;SDS011;43403;51.948;5.922;2022-11-21T01:11:54;28.42;;;17.08;;
57567;SDS011;43403;51.948;5.922;2022-11-21T01:14:20;31.45;;;17.45;;
57567;SDS011;43403;51.948;5.922;2022-11-21T01:16:47;29.50;;;18.10;;
57567;SDS011;43403;51.948;5.922;2022-11-21T01:19:14;29.40;;;17.35;;
57567;SDS011;43403;51.948;5.922;2022-11-21T01:21:40;29.48;;;18.25;;
57567;SDS011;43403;51.948;5.922;2022-11-21T01:24:08;26.98;;;16.77;;
57567;SDS011;43403;51.948;5.922;2022-11-21T01:26:36;28.27;;;17.48;;
57567;SDS011;43403;51.948;5.922;2022-11-21T01:29:03;28.60;;;17.75;;
57567;SDS011;43403;51.948;5.922;2022-11-21T01:31:30;27.60;;;17.42;;
57567;SDS011;43403;51.948;5.922;2022-11-21T01:33:57;22.60;;;14.27;;
57567;SDS011;43403;51.948;5.922;2022-11-21T01:36:25;27.30;;;16.05;;
57567;SDS011;43403;51.948;5.922;2022-11-21T01:38:54;28.20;;;16.67;;
57567;SDS011;43403;51.948;5.922;2022-11-21T01:41:26;28.17;;;16.73;;
57567;SDS011;43403;51.948;5.922;2022-11-21T01:43:56;26.98;;;16.05;;
57567;SDS011;43403;51.948;5.922;2022-11-21T01:46:23;27.42;;;16.60;;
57567;SDS011;43403;51.948;5.922;2022-11-21T01:48:54;27.83;;;17.23;;
57567;SDS011;43403;51.948;5.922;2022-11-21T01:51:24;28.45;;;16.27;;
57567;SDS011;43403;51.948;5.922;2022-11-21T01:54:00;26.35;;;15.88;;
57567;SDS011;43403;51.948;5.922;2022-11-21T01:56:35;29.00;;;16.85;;
57567;SDS011;43403;51.948;5.922;2022-11-21T01:59:10;30.45;;;17.45;;
57567;SDS011;43403;51.948;5.922;2022-11-21T02:01:43;28.63;;;16.40;;
57567;SDS011;43403;51.948;5.922;2022-11-21T02:04:11;32.08;;;17.15;;
57567;SDS011;43403;51.948;5.922;2022-11-21T02:06:37;28.52;;;16.95;;
57567;SDS011;43403;51.948;5.922;2022-11-21T02:09:04;29.90;;;17.92;;
57567;SDS011;43403;51.948;5.922;2022-11-21T02:13:58;30.00;;;17.23;;
57567;SDS011;43403;51.948;5.922;2022-11-21T02:16:26;31.85;;;18.20;;
57567;SDS011;43403;51.948;5.922;2022-11-21T02:18:52;31.77;;;17.50;;
57567;SDS011;43403;51.948;5.922;2022-11-21T02:23:56;30.48;;;18.17;;
57567;SDS011;43403;51.948;5.922;2022-11-21T02:26:30;29.00;;;17.15;;
57567;SDS011;43403;51.948;5.922;2022-11-21T02:28:56;32.97;;;17.92;;
57567;SDS011;43403;51.948;5.922;2022-11-21T02:31:23;31.27;;;16.88;;
57567;SDS011;43403;51.948;5.922;2022-11-21T02:33:49;32.22;;;18.60;;
57567;SDS011;43403;51.948;5.922;2022-11-21T02:39:10;29.20;;;17.15;;
57567;SDS011;43403;51.948;5.922;2022-11-21T02:42:43;31.70;;;17.23;;
57567;SDS011;43403;51.948;5.922;2022-11-21T02:47:47;31.50;;;17.65;;
57567;SDS011;43403;51.948;5.922;2022-11-21T02:50:22;33.85;;;19.15;;
57567;SDS011;43403;51.948;5.922;2022-11-21T02:52:53;33.28;;;18.67;;
57567;SDS011;43403;51.948;5.922;2022-11-21T02:55:21;31.13;;;18.67;;
57567;SDS011;43403;51.948;5.922;2022-11-21T02:57:48;35.08;;;20.05;;
57567;SDS011;43403;51.948;5.922;2022-11-21T03:00:15;31.85;;;18.58;;
57567;SDS011;43403;51.948;5.922;2022-11-21T03:02:42;34.47;;;19.65;;
57567;SDS011;43403;51.948;5.922;2022-11-21T03:05:09;34.90;;;19.52;;
57567;SDS011;43403;51.948;5.922;2022-11-21T03:07:37;35.53;;;19.33;;
57567;SDS011;43403;51.948;5.922;2022-11-21T03:10:04;38.15;;;19.90;;
57567;SDS011;43403;51.948;5.922;2022-11-21T03:12:30;33.88;;;18.30;;
57567;SDS011;43403;51.948;5.922;2022-11-21T03:14:57;35.38;;;18.30;;
57567;SDS011;43403;51.948;5.922;2022-11-21T03:17:23;36.05;;;19.45;;
57567;SDS011;43403;51.948;5.922;2022-11-21T03:19:49;32.88;;;18.23;;
57567;SDS011;43403;51.948;5.922;2022-11-21T03:22:16;38.53;;;20.20;;
57567;SDS011;43403;51.948;5.922;2022-11-21T03:24:42;36.40;;;19.00;;
57567;SDS011;43403;51.948;5.922;2022-11-21T03:27:08;33.38;;;19.17;;
57567;SDS011;43403;51.948;5.922;2022-11-21T03:29:35;34.40;;;19.02;;
57567;SDS011;43403;51.948;5.922;2022-11-21T03:32:01;36.17;;;20.30;;
57567;SDS011;43403;51.948;5.922;2022-11-21T03:34:28;33.42;;;19.10;;
57567;SDS011;43403;51.948;5.922;2022-11-21T03:36:55;30.98;;;17.77;;
57567;SDS011;43403;51.948;5.922;2022-11-21T03:39:21;33.13;;;19.30;;
57567;SDS011;43403;51.948;5.922;2022-11-21T03:41:48;32.78;;;19.45;;
57567;SDS011;43403;51.948;5.922;2022-11-21T03:44:14;32.15;;;18.13;;
57567;SDS011;43403;51.948;5.922;2022-11-21T03:46:41;31.67;;;18.80;;
57567;SDS011;43403;51.948;5.922;2022-11-21T03:49:11;32.72;;;18.20;;
57567;SDS011;43403;51.948;5.922;2022-11-21T03:51:38;39.92;;;21.67;;
57567;SDS011;43403;51.948;5.922;2022-11-21T03:54:05;34.10;;;19.02;;
57567;SDS011;43403;51.948;5.922;2022-11-21T03:56:32;33.17;;;18.13;;
57567;SDS011;43403;51.948;5.922;2022-11-21T03:58:58;37.55;;;18.55;;
57567;SDS011;43403;51.948;5.922;2022-11-21T04:01:25;35.17;;;20.20;;
57567;SDS011;43403;51.948;5.922;2022-11-21T04:03:51;30.98;;;16.30;;
57567;SDS011;43403;51.948;5.922;2022-11-21T04:06:19;37.67;;;18.50;;
57567;SDS011;43403;51.948;5.922;2022-11-21T04:08:47;33.95;;;16.83;;
57567;SDS011;43403;51.948;5.922;2022-11-21T04:11:14;34.83;;;18.45;;
57567;SDS011;43403;51.948;5.922;2022-11-21T04:13:41;38.08;;;19.05;;
57567;SDS011;43403;51.948;5.922;2022-11-21T04:16:07;37.45;;;17.80;;
57567;SDS011;43403;51.948;5.922;2022-11-21T04:18:34;35.47;;;17.98;;
57567;SDS011;43403;51.948;5.922;2022-11-21T04:21:02;34.30;;;17.90;;
57567;SDS011;43403;51.948;5.922;2022-11-21T04:23:30;29.98;;;16.90;;
57567;SDS011;43403;51.948;5.922;2022-11-21T04:25:56;32.35;;;17.08;;
57567;SDS011;43403;51.948;5.922;2022-11-21T04:28:23;31.58;;;16.95;;
57567;SDS011;43403;51.948;5.922;2022-11-21T04:30:50;33.22;;;17.17;;
57567;SDS011;43403;51.948;5.922;2022-11-21T04:33:20;31.73;;;16.00;;
57567;SDS011;43403;51.948;5.922;2022-11-21T04:35:46;36.67;;;19.13;;
57567;SDS011;43403;51.948;5.922;2022-11-21T04:38:13;33.85;;;17.75;;
57567;SDS011;43403;51.948;5.922;2022-11-21T04:40:39;37.50;;;18.27;;
57567;SDS011;43403;51.948;5.922;2022-11-21T04:43:07;36.30;;;17.42;;
57567;SDS011;43403;51.948;5.922;2022-11-21T04:45:34;38.50;;;18.58;;
57567;SDS011;43403;51.948;5.922;2022-11-21T04:48:00;36.28;;;18.00;;
57567;SDS011;43403;51.948;5.922;2022-11-21T04:50:26;41.20;;;20.08;;
57567;SDS011;43403;51.948;5.922;2022-11-21T04:52:54;40.72;;;19.63;;
57567;SDS011;43403;51.948;5.922;2022-11-21T04:55:22;39.75;;;18.15;;
57567;SDS011;43403;51.948;5.922;2022-11-21T04:57:52;42.30;;;20.02;;
57567;SDS011;43403;51.948;5.922;2022-11-21T05:00:19;44.78;;;20.83;;
57567;SDS011;43403;51.948;5.922;2022-11-21T05:02:49;38.50;;;18.50;;
57567;SDS011;43403;51.948;5.922;2022-11-21T05:05:16;42.85;;;20.52;;
57567;SDS011;43403;51.948;5.922;2022-11-21T05:07:42;40.28;;;19.13;;
57567;SDS011;43403;51.948;5.922;2022-11-21T05:10:09;40.33;;;18.92;;
57567;SDS011;43403;51.948;5.922;2022-11-21T05:12:35;40.50;;;19.00;;
57567;SDS011;43403;51.948;5.922;2022-11-21T05:15:20;42.97;;;20.38;;
57567;SDS011;43403;51.948;5.922;2022-11-21T05:17:50;42.03;;;20.10;;
57567;SDS011;43403;51.948;5.922;2022-11-21T05:20:16;43.92;;;19.55;;
57567;SDS011;43403;51.948;5.922;2022-11-21T05:22:43;45.97;;;21.60;;
57567;SDS011;43403;51.948;5.922;2022-11-21T05:25:14;54.95;;;23.27;;
57567;SDS011;43403;51.948;5.922;2022-11-21T05:27:41;49.47;;;22.67;;
57567;SDS011;43403;51.948;5.922;2022-11-21T05:30:08;55.47;;;23.92;;
57567;SDS011;43403;51.948;5.922;2022-11-21T05:32:36;62.77;;;22.37;;
57567;SDS011;43403;51.948;5.922;2022-11-21T05:35:02;55.10;;;23.58;;
57567;SDS011;43403;51.948;5.922;2022-11-21T05:37:29;59.58;;;23.58;;
57567;SDS011;43403;51.948;5.922;2022-11-21T05:39:55;53.10;;;23.80;;
57567;SDS011;43403;51.948;5.922;2022-11-21T05:42:22;58.85;;;24.88;;
57567;SDS011;43403;51.948;5.922;2022-11-21T05:45:08;54.15;;;21.45;;
57567;SDS011;43403;51.948;5.922;2022-11-21T05:47:35;64.40;;;24.08;;
57567;SDS011;43403;51.948;5.922;2022-11-21T05:50:01;46.08;;;20.98;;
57567;SDS011;43403;51.948;5.922;2022-11-21T05:52:28;63.72;;;22.85;;
57567;SDS011;43403;51.948;5.922;2022-11-21T05:54:55;57.53;;;22.05;;
57567;SDS011;43403;51.948;5.922;2022-11-21T05:57:21;51.80;;;22.33;;
57567;SDS011;43403;51.948;5.922;2022-11-21T05:59:47;55.70;;;22.08;;
57567;SDS011;43403;51.948;5.922;2022-11-21T06:02:14;69.82;;;21.52;;
57567;SDS011;43403;51.948;5.922;2022-11-21T06:04:59;64.97;;;20.38;;
57567;SDS011;43403;51.948;5.922;2022-11-21T06:07:25;49.35;;;21.30;;
57567;SDS011;43403;51.948;5.922;2022-11-21T06:09:51;59.47;;;21.73;;
57567;SDS011;43403;51.948;5.922;2022-11-21T06:12:18;45.17;;;20.30;;
57567;SDS011;43403;51.948;5.922;2022-11-21T06:14:50;50.17;;;21.70;;
57567;SDS011;43403;51.948;5.922;2022-11-21T06:17:17;55.20;;;22.67;;
57567;SDS011;43403;51.948;5.922;2022-11-21T06:19:43;58.83;;;22.13;;
57567;SDS011;43403;51.948;5.922;2022-11-21T06:22:09;54.55;;;22.17;;
57567;SDS011;43403;51.948;5.922;2022-11-21T06:24:36;82.85;;;23.83;;
57567;SDS011;43403;51.948;5.922;2022-11-21T06:27:02;91.68;;;23.90;;
57567;SDS011;43403;51.948;5.922;2022-11-21T06:29:29;60.63;;;21.08;;
57567;SDS011;43403;51.948;5.922;2022-11-21T06:31:55;47.72;;;20.65;;
57567;SDS011;43403;51.948;5.922;2022-11-21T06:34:21;58.22;;;22.05;;
57567;SDS011;43403;51.948;5.922;2022-11-21T06:36:51;42.97;;;20.55;;
57567;SDS011;43403;51.948;5.922;2022-11-21T06:39:17;52.65;;;22.42;;
57567;SDS011;43403;51.948;5.922;2022-11-21T06:41:44;51.22;;;21.80;;
57567;SDS011;43403;51.948;5.922;2022-11-21T06:44:16;51.90;;;21.15;;
57567;SDS011;43403;51.948;5.922;2022-11-21T06:46:43;42.83;;;19.85;;
57567;SDS011;43403;51.948;5.922;2022-11-21T06:49:16;52.05;;;20.00;;
57567;SDS011;43403;51.948;5.922;2022-11-21T06:51:42;40.75;;;18.17;;
57567;SDS011;43403;51.948;5.922;2022-11-21T06:54:09;46.13;;;19.85;;
57567;SDS011;43403;51.948;5.922;2022-11-21T06:56:41;40.47;;;18.13;;
57567;SDS011;43403;51.948;5.922;2022-11-21T06:59:08;35.90;;;18.10;;
57567;SDS011;43403;51.948;5.922;2022-11-21T07:01:34;39.00;;;19.52;;
57567;SDS011;43403;51.948;5.922;2022-11-21T07:04:01;36.70;;;18.10;;
57567;SDS011;43403;51.948;5.922;2022-11-21T07:06:27;33.67;;;16.08;;
57567;SDS011;43403;51.948;5.922;2022-11-21T07:08:54;37.15;;;18.30;;
57567;SDS011;43403;51.948;5.922;2022-11-21T07:11:40;34.22;;;16.75;;
57567;SDS011;43403;51.948;5.922;2022-11-21T07:14:06;34.17;;;17.50;;
57567;SDS011;43403;51.948;5.922;2022-11-21T07:16:34;33.28;;;17.60;;
57567;SDS011;43403;51.948;5.922;2022-11-21T07:19:01;32.35;;;15.73;;
57567;SDS011;43403;51.948;5.922;2022-11-21T07:21:28;33.97;;;15.73;;
57567;SDS011;43403;51.948;5.922;2022-11-21T07:23:54;34.15;;;16.67;;
57567;SDS011;43403;51.948;5.922;2022-11-21T07:26:20;30.58;;;15.98;;
57567;SDS011;43403;51.948;5.922;2022-11-21T07:28:47;33.08;;;17.08;;
57567;SDS011;43403;51.948;5.922;2022-11-21T07:31:13;34.53;;;16.48;;
57567;SDS011;43403;51.948;5.922;2022-11-21T07:33:40;35.75;;;17.40;;
57567;SDS011;43403;51.948;5.922;2022-11-21T07:36:08;35.08;;;16.42;;
57567;SDS011;43403;51.948;5.922;2022-11-21T07:38:35;34.67;;;16.83;;
57567;SDS011;43403;51.948;5.922;2022-11-21T07:41:01;34.20;;;17.83;;
57567;SDS011;43403;51.948;5.922;2022-11-21T07:43:28;31.58;;;17.60;;
57567;SDS011;43403;51.948;5.922;2022-11-21T07:45:54;33.58;;;17.70;;
57567;SDS011;43403;51.948;5.922;2022-11-21T07:48:21;30.60;;;15.98;;
57567;SDS011;43403;51.948;5.922;2022-11-21T07:50:48;32.53;;;16.40;;
57567;SDS011;43403;51.948;5.922;2022-11-21T07:53:14;27.25;;;14.85;;
57567;SDS011;43403;51.948;5.922;2022-11-21T07:55:40;30.73;;;16.08;;
57567;SDS011;43403;51.948;5.922;2022-11-21T07:58:08;28.95;;;15.38;;
57567;SDS011;43403;51.948;5.922;2022-11-21T08:00:37;30.05;;;15.75;;
57567;SDS011;43403;51.948;5.922;2022-11-21T08:03:05;32.35;;;16.52;;
57567;SDS011;43403;51.948;5.922;2022-11-21T08:05:35;30.88;;;15.48;;
57567;SDS011;43403;51.948;5.922;2022-11-21T08:08:04;32.53;;;16.25;;
57567;SDS011;43403;51.948;5.922;2022-11-21T08:10:30;31.25;;;16.38;;
57567;SDS011;43403;51.948;5.922;2022-11-21T08:12:57;30.17;;;14.45;;
57567;SDS011;43403;51.948;5.922;2022-11-21T08:15:24;28.48;;;15.75;;
57567;SDS011;43403;51.948;5.922;2022-11-21T08:17:50;26.75;;;14.23;;
57567;SDS011;43403;51.948;5.922;2022-11-21T08:20:16;28.48;;;15.15;;
57567;SDS011;43403;51.948;5.922;2022-11-21T08:22:43;32.13;;;16.98;;
57567;SDS011;43403;51.948;5.922;2022-11-21T08:25:09;26.45;;;15.05;;
57567;SDS011;43403;51.948;5.922;2022-11-21T08:27:36;33.15;;;16.92;;
57567;SDS011;43403;51.948;5.922;2022-11-21T08:30:05;31.08;;;17.05;;
57567;SDS011;43403;51.948;5.922;2022-11-21T08:32:32;35.17;;;18.42;;
57567;SDS011;43403;51.948;5.922;2022-11-21T08:34:59;34.72;;;16.98;;
57567;SDS011;43403;51.948;5.922;2022-11-21T08:37:26;41.08;;;19.85;;
57567;SDS011;43403;51.948;5.922;2022-11-21T08:39:54;43.03;;;20.42;;
57567;SDS011;43403;51.948;5.922;2022-11-21T08:42:24;43.55;;;19.60;;
57567;SDS011;43403;51.948;5.922;2022-11-21T08:44:50;43.33;;;19.02;;
57567;SDS011;43403;51.948;5.922;2022-11-21T08:47:17;52.28;;;21.50;;
57567;SDS011;43403;51.948;5.922;2022-11-21T08:49:45;45.65;;;21.08;;
57567;SDS011;43403;51.948;5.922;2022-11-21T08:52:13;47.40;;;20.95;;
57567;SDS011;43403;51.948;5.922;2022-11-21T08:54:40;47.25;;;20.45;;
57567;SDS011;43403;51.948;5.922;2022-11-21T08:57:06;47.53;;;20.83;;
57567;SDS011;43403;51.948;5.922;2022-11-21T08:59:32;43.33;;;18.48;;
57567;SDS011;43403;51.948;5.922;2022-11-21T09:01:59;45.45;;;18.70;;
57567;SDS011;43403;51.948;5.922;2022-11-21T09:04:25;44.45;;;19.25;;
57567;SDS011;43403;51.948;5.922;2022-11-21T09:06:52;45.25;;;19.10;;
57567;SDS011;43403;51.948;5.922;2022-11-21T09:09:19;39.00;;;17.55;;
57567;SDS011;43403;51.948;5.922;2022-11-21T09:11:50;46.83;;;18.95;;
57567;SDS011;43403;51.948;5.922;2022-11-21T09:14:17;38.58;;;17.15;;
57567;SDS011;43403;51.948;5.922;2022-11-21T09:17:02;45.30;;;19.13;;
57567;SDS011;43403;51.948;5.922;2022-11-21T09:19:47;54.03;;;20.30;;
57567;SDS011;43403;51.948;5.922;2022-11-21T09:22:13;55.45;;;19.27;;
57567;SDS011;43403;51.948;5.922;2022-11-21T09:24:39;42.45;;;17.67;;
57567;SDS011;43403;51.948;5.922;2022-11-21T09:27:06;42.13;;;17.90;;
57567;SDS011;43403;51.948;5.922;2022-11-21T09:29:32;43.40;;;17.42;;
57567;SDS011;43403;51.948;5.922;2022-11-21T09:31:59;41.17;;;18.60;;
57567;SDS011;43403;51.948;5.922;2022-11-21T09:34:25;48.65;;;18.38;;
57567;SDS011;43403;51.948;5.922;2022-11-21T09:36:52;46.60;;;17.65;;
57567;SDS011;43403;51.948;5.922;2022-11-21T09:39:19;51.97;;;17.23;;
57567;SDS011;43403;51.948;5.922;2022-11-21T09:44:58;53.20;;;16.48;;
57567;SDS011;43403;51.948;5.922;2022-11-21T09:47:29;36.17;;;17.25;;
57567;SDS011;43403;51.948;5.922;2022-11-21T09:50:05;46.88;;;17.85;;
57567;SDS011;43403;51.948;5.922;2022-11-21T09:53:01;35.08;;;16.52;;
57567;SDS011;43403;51.948;5.922;2022-11-21T09:58:10;42.33;;;17.90;;
57567;SDS011;43403;51.948;5.922;2022-11-21T10:00:49;45.45;;;18.15;;
57567;SDS011;43403;51.948;5.922;2022-11-21T10:03:16;48.38;;;18.23;;
57567;SDS011;43403;51.948;5.922;2022-11-21T10:05:52;34.38;;;16.25;;
57567;SDS011;43403;51.948;5.922;2022-11-21T10:11:45;40.47;;;18.02;;
57567;SDS011;43403;51.948;5.922;2022-11-21T10:14:50;35.47;;;16.77;;
57567;SDS011;43403;51.948;5.922;2022-11-21T10:17:22;40.88;;;18.02;;
57567;SDS011;43403;51.948;5.922;2022-11-21T10:22:48;42.03;;;19.92;;
57567;SDS011;43403;51.948;5.922;2022-11-21T10:25:27;41.70;;;19.73;;
57567;SDS011;43403;51.948;5.922;2022-11-21T10:30:47;43.08;;;19.77;;
57567;SDS011;43403;51.948;5.922;2022-11-21T10:33:20;48.00;;;21.30;;
57567;SDS011;43403;51.948;5.922;2022-11-21T10:35:54;50.05;;;21.48;;
57567;SDS011;43403;51.948;5.922;2022-11-21T10:38:25;53.28;;;23.52;;
57567;SDS011;43403;51.948;5.922;2022-11-21T10:41:10;45.22;;;21.50;;
57567;SDS011;43403;51.948;5.922;2022-11-21T10:43:48;39.88;;;19.15;;
57567;SDS011;43403;51.948;5.922;2022-11-21T10:46:47;45.35;;;19.92;;
57567;SDS011;43403;51.948;5.922;2022-11-21T10:49:19;46.10;;;21.55;;
57567;SDS011;43403;51.948;5.922;2022-11-21T10:54:32;41.92;;;19.27;;
57567;SDS011;43403;51.948;5.922;2022-11-21T10:57:27;50.45;;;20.50;;
57567;SDS011;43403;51.948;5.922;2022-11-21T11:00:04;36.95;;;18.73;;
57567;SDS011;43403;51.948;5.922;2022-11-21T11:03:02;41.70;;;19.50;;
57567;SDS011;43403;51.948;5.922;2022-11-21T11:05:31;43.40;;;20.08;;
57567;SDS011;43403;51.948;5.922;2022-11-21T11:10:40;39.20;;;19.95;;
57567;SDS011;43403;51.948;5.922;2022-11-21T11:13:16;38.63;;;19.17;;
57567;SDS011;43403;51.948;5.922;2022-11-21T11:16:16;45.63;;;20.25;;
57567;SDS011;43403;51.948;5.922;2022-11-21T11:18:47;41.33;;;18.77;;
57567;SDS011;43403;51.948;5.922;2022-11-21T11:21:20;42.78;;;19.90;;
57567;SDS011;43403;51.948;5.922;2022-11-21T11:23:49;44.47;;;20.65;;
57567;SDS011;43403;51.948;5.922;2022-11-21T11:26:17;39.38;;;19.33;;
57567;SDS011;43403;51.948;5.922;2022-11-21T11:28:51;43.47;;;19.67;;
57567;SDS011;43403;51.948;5.922;2022-11-21T11:31:17;36.70;;;18.30;;
57567;SDS011;43403;51.948;5.922;2022-11-21T11:36:14;39.17;;;19.40;;
57567;SDS011;43403;51.948;5.922;2022-11-21T11:38:54;40.10;;;19.67;;
57567;SDS011;43403;51.948;5.922;2022-11-21T11:47:33;41.97;;;19.73;;
57567;SDS011;43403;51.948;5.922;2022-11-21T11:50:09;41.92;;;19.08;;
57567;SDS011;43403;51.948;5.922;2022-11-21T11:52:53;37.10;;;19.00;;
57567;SDS011;43403;51.948;5.922;2022-11-21T11:55:42;35.35;;;18.95;;
57567;SDS011;43403;51.948;5.922;2022-11-21T12:00:59;32.95;;;17.05;;
57567;SDS011;43403;51.948;5.922;2022-11-21T12:03:42;32.83;;;17.88;;
57567;SDS011;43403;51.948;5.922;2022-11-21T12:06:23;33.13;;;17.30;;
57567;SDS011;43403;51.948;5.922;2022-11-21T12:09:14;28.70;;;17.17;;
57567;SDS011;43403;51.948;5.922;2022-11-21T12:14:45;25.35;;;15.38;;
57567;SDS011;43403;51.948;5.922;2022-11-21T12:20:36;29.80;;;15.80;;
57567;SDS011;43403;51.948;5.922;2022-11-21T12:23:17;26.60;;;16.00;;
57567;SDS011;43403;51.948;5.922;2022-11-21T12:34:45;24.92;;;15.88;;
57567;SDS011;43403;51.948;5.922;2022-11-21T12:40:29;26.38;;;15.73;;
57567;SDS011;43403;51.948;5.922;2022-11-21T12:46:09;21.17;;;11.75;;
57567;SDS011;43403;51.948;5.922;2022-11-21T12:57:24;23.23;;;13.75;;
57567;SDS011;43403;51.948;5.922;2022-11-21T13:05:47;16.50;;;10.57;;
57567;SDS011;43403;51.948;5.922;2022-11-21T13:08:17;17.35;;;9.88;;
57567;SDS011;43403;51.948;5.922;2022-11-21T13:13:42;11.98;;;9.05;;
57567;SDS011;43403;51.948;5.922;2022-11-21T13:16:17;11.80;;;7.70;;
57567;SDS011;43403;51.948;5.922;2022-11-21T13:22:01;16.20;;;8.82;;
57567;SDS011;43403;51.948;5.922;2022-11-21T13:27:25;16.42;;;8.48;;
57567;SDS011;43403;51.948;5.922;2022-11-21T13:32:45;14.30;;;8.95;;
57567;SDS011;43403;51.948;5.922;2022-11-21T13:37:57;12.90;;;7.90;;
57567;SDS011;43403;51.948;5.922;2022-11-21T13:45:56;13.68;;;9.02;;
57567;SDS011;43403;51.948;5.922;2022-11-21T13:50:57;15.65;;;9.55;;
57567;SDS011;43403;51.948;5.922;2022-11-21T13:53:39;12.20;;;7.65;;
57567;SDS011;43403;51.948;5.922;2022-11-21T13:56:24;13.98;;;6.35;;
57567;SDS011;43403;51.948;5.922;2022-11-21T13:59:20;22.52;;;8.18;;
57567;SDS011;43403;51.948;5.922;2022-11-21T14:02:01;16.70;;;7.80;;
57567;SDS011;43403;51.948;5.922;2022-11-21T14:05:03;14.23;;;6.93;;
57567;SDS011;43403;51.948;5.922;2022-11-21T14:07:43;12.13;;;6.35;;
57567;SDS011;43403;51.948;5.922;2022-11-21T14:10:18;18.95;;;6.47;;
57567;SDS011;43403;51.948;5.922;2022-11-21T14:12:58;13.35;;;8.02;;
57567;SDS011;43403;51.948;5.922;2022-11-21T14:15:37;17.02;;;7.55;;
57567;SDS011;43403;51.948;5.922;2022-11-21T14:18:14;13.60;;;7.55;;
57567;SDS011;43403;51.948;5.922;2022-11-21T14:20:54;13.68;;;7.22;;
57567;SDS011;43403;51.948;5.922;2022-11-21T14:23:33;15.10;;;8.63;;
57567;SDS011;43403;51.948;5.922;2022-11-21T14:28:30;13.52;;;8.02;;
57567;SDS011;43403;51.948;5.922;2022-11-21T14:30:59;12.93;;;8.82;;
57567;SDS011;43403;51.948;5.922;2022-11-21T14:33:30;20.25;;;9.48;;
57567;SDS011;43403;51.948;5.922;2022-11-21T14:36:08;16.10;;;8.73;;
57567;SDS011;43403;51.948;5.922;2022-11-21T14:38:42;17.83;;;8.65;;
57567;SDS011;43403;51.948;5.922;2022-11-21T14:41:36;13.40;;;7.38;;
57567;SDS011;43403;51.948;5.922;2022-11-21T14:44:05;9.68;;;6.20;;
57567;SDS011;43403;51.948;5.922;2022-11-21T14:46:40;12.85;;;6.40;;
57567;SDS011;43403;51.948;5.922;2022-11-21T14:51:47;13.25;;;6.85;;
57567;SDS011;43403;51.948;5.922;2022-11-21T14:54:23;13.10;;;6.60;;
57567;SDS011;43403;51.948;5.922;2022-11-21T14:56:55;15.50;;;6.90;;
57567;SDS011;43403;51.948;5.922;2022-11-21T14:59:25;14.13;;;6.43;;
57567;SDS011;43403;51.948;5.922;2022-11-21T15:02:02;18.83;;;6.68;;
57567;SDS011;43403;51.948;5.922;2022-11-21T15:04:33;11.27;;;7.03;;
57567;SDS011;43403;51.948;5.922;2022-11-21T15:09:28;16.08;;;6.22;;
57567;SDS011;43403;51.948;5.922;2022-11-21T15:12:18;13.35;;;7.00;;
57567;SDS011;43403;51.948;5.922;2022-11-21T15:14:59;13.45;;;6.72;;
57567;SDS011;43403;51.948;5.922;2022-11-21T15:17:31;15.63;;;7.03;;
57567;SDS011;43403;51.948;5.922;2022-11-21T15:22:37;12.93;;;6.82;;
57567;SDS011;43403;51.948;5.922;2022-11-21T15:27:37;12.35;;;7.15;;
57567;SDS011;43403;51.948;5.922;2022-11-21T15:35:42;16.85;;;7.65;;
57567;SDS011;43403;51.948;5.922;2022-11-21T15:38:14;15.70;;;7.45;;
57567;SDS011;43403;51.948;5.922;2022-11-21T15:41:02;12.02;;;6.38;;
57567;SDS011;43403;51.948;5.922;2022-11-21T15:46:27;17.60;;;9.38;;
57567;SDS011;43403;51.948;5.922;2022-11-21T15:48:59;18.30;;;8.07;;
57567;SDS011;43403;51.948;5.922;2022-11-21T15:51:45;22.55;;;10.90;;
57567;SDS011;43403;51.948;5.922;2022-11-21T15:54:34;15.55;;;9.68;;
57567;SDS011;43403;51.948;5.922;2022-11-21T15:57:00;14.38;;;7.90;;
57567;SDS011;43403;51.948;5.922;2022-11-21T15:59:27;14.35;;;7.50;;
57567;SDS011;43403;51.948;5.922;2022-11-21T16:01:54;14.35;;;7.97;;
57567;SDS011;43403;51.948;5.922;2022-11-21T16:04:20;18.00;;;9.55;;
57567;SDS011;43403;51.948;5.922;2022-11-21T16:06:51;16.30;;;9.05;;
57567;SDS011;43403;51.948;5.922;2022-11-21T16:09:18;16.73;;;10.05;;
57567;SDS011;43403;51.948;5.922;2022-11-21T16:11:44;15.52;;;9.43;;
57567;SDS011;43403;51.948;5.922;2022-11-21T16:14:13;22.73;;;10.23;;
57567;SDS011;43403;51.948;5.922;2022-11-21T16:16:41;18.13;;;9.32;;
57567;SDS011;43403;51.948;5.922;2022-11-21T16:19:11;19.95;;;10.13;;
57567;SDS011;43403;51.948;5.922;2022-11-21T16:21:39;22.40;;;11.00;;
57567;SDS011;43403;51.948;5.922;2022-11-21T16:24:06;18.05;;;10.13;;
57567;SDS011;43403;51.948;5.922;2022-11-21T16:26:32;16.98;;;9.43;;
57567;SDS011;43403;51.948;5.922;2022-11-21T16:28:59;18.33;;;11.20;;
57567;SDS011;43403;51.948;5.922;2022-11-21T16:31:30;18.92;;;10.48;;
57567;SDS011;43403;51.948;5.922;2022-11-21T16:33:57;15.02;;;9.32;;
57567;SDS011;43403;51.948;5.922;2022-11-21T16:36:25;17.58;;;10.93;;
57567;SDS011;43403;51.948;5.922;2022-11-21T16:38:53;19.42;;;10.80;;
57567;SDS011;43403;51.948;5.922;2022-11-21T16:41:27;17.65;;;9.90;;
57567;SDS011;43403;51.948;5.922;2022-11-21T16:43:54;18.50;;;10.45;;
57567;SDS011;43403;51.948;5.922;2022-11-21T16:46:21;17.20;;;8.77;;
57567;SDS011;43403;51.948;5.922;2022-11-21T16:51:22;15.20;;;9.68;;